Time;durP1;ratioP1;P1;durP2;ratioP2;P2;SDS_P1;SDS_P2;PMS_P1;PMS_P2;Temp;Humidity;BMP_temperature;BMP_pressure;BME280_temperature;BME280_humidity;BME280_pressure;Samples;Min_cycle;Max_cycle;Signal;HPM_P1;HPM_P2
2022/09/08 00:01:32;;;;;;;;;;;;;;;26.24;100.00;98331.00;5071839;28;19920;-40
2022/09/08 00:03:57;;;;;;;;;;;;;;;26.01;100.00;98324.72;5073558;28;19981;-40
2022/09/08 00:06:23;;;;;;;;;;;;;;;25.92;100.00;98326.53;5074972;28;19916;-40
2022/09/08 00:08:48;;;;;;;;;;;;;;;25.45;100.00;98325.28;5075028;28;19919;-40
2022/09/08 00:11:15;;;;;;;;;;;;;;;25.11;100.00;98321.81;5076657;28;20686;-41
2022/09/08 00:13:41;;;;;;;;;;;;;;;25.14;100.00;98324.13;5075757;28;20043;-40
2022/09/08 00:16:07;;;;;;;;;;;;;;;24.84;100.00;98326.31;5056046;28;19920;-40
2022/09/08 00:18:33;;;;;;;;;;;;;;;24.72;100.00;98322.25;5040825;28;19934;-40
2022/09/08 00:20:58;;;;;;;;;;;;;;;24.47;100.00;98318.63;5075076;28;20060;-40
2022/09/08 00:23:23;;;;;;;;;;;;;;;24.38;100.00;98317.72;5075878;28;19954;-40
2022/09/08 00:25:48;;;;;;;;;;;;;;;23.72;100.00;98327.69;5073879;28;19928;-40
2022/09/08 00:28:14;;;;;;;;;;;;;;;24.03;100.00;98313.38;5075856;28;20015;-40
2022/09/08 00:30:39;;;;;;;;;;;;;;;24.22;100.00;98310.53;5073860;28;19920;-40
2022/09/08 00:33:04;;;;;;;;;;;;;;;24.08;100.00;98306.66;5073418;28;19957;-40
2022/09/08 00:35:29;;;;;;;;;;;;;;;24.18;100.00;98299.50;5074354;28;20020;-40
2022/09/08 00:37:54;;;;;;;;;;;;;;;24.31;100.00;98287.75;5075107;28;20043;-40
2022/09/08 00:40:21;;;;;;;;;;;;;;;24.33;100.00;98280.53;5072220;28;19978;-40
2022/09/08 00:42:46;;;;;;;;;;;;;;;23.92;100.00;98282.84;5075572;28;19924;-40
2022/09/08 00:45:12;;;;;;;;;;;;;;;24.39;100.00;98272.84;5074637;28;20407;-40
2022/09/08 00:47:57;;;;;;;;;;;;;;;24.58;100.00;98263.94;5072206;28;20814;-40
2022/09/08 00:50:23;;;;;;;;;;;;;;;24.68;100.00;98263.00;5057369;28;20369;-40
2022/09/08 00:52:50;;;;;;;;;;;;;;;24.61;100.00;98265.47;5056014;28;19920;-41
2022/09/08 00:55:16;;;;;;;;;;;;;;;24.62;100.00;98261.81;5057364;28;19920;-41
2022/09/08 00:57:41;;;;;;;;;;;;;;;24.47;100.00;98272.09;5071818;28;19928;-40
2022/09/08 01:00:08;;;;;;;;;;;;;;;24.35;100.00;98262.78;5075721;28;19933;-40
2022/09/08 01:02:33;;;;;;;;;;;;;;;24.88;100.00;98248.59;5058305;28;20820;-40
2022/09/08 01:04:59;;;;;;;;;;;;;;;24.60;100.00;98233.00;5075417;28;19970;-40
2022/09/08 01:13:22;;;;;;;;;;;;;;;23.90;100.00;98229.56;5073604;28;20022;-40
2022/09/08 01:15:48;;;;;;;;;;;;;;;23.61;100.00;98222.75;5052972;28;19920;-40
2022/09/08 01:18:13;;;;;;;;;;;;;;;23.43;100.00;98232.44;5074284;28;20556;-40
2022/09/08 01:20:47;;;;;;;;;;;;;;;23.75;100.00;98219.63;5074407;28;19920;-40
2022/09/08 01:23:31;;;;;;;;;;;;;;;23.97;100.00;98225.34;5074602;28;19920;-40
2022/09/08 01:25:56;;;;;;;;;;;;;;;24.16;100.00;98222.53;5074489;28;20299;-40
2022/09/08 01:28:28;;;;;;;;;;;;;;;24.57;100.00;98222.00;5073672;28;19920;-40
2022/09/08 01:30:54;;;;;;;;;;;;;;;25.23;100.00;98220.44;5056698;28;19924;-40
2022/09/08 01:33:19;;;;;;;;;;;;;;;25.19;100.00;98213.84;5052661;28;20475;-40
2022/09/08 01:35:44;;;;;;;;;;;;;;;24.60;100.00;98219.03;5072613;28;19981;-40
2022/09/08 01:38:10;;;;;;;;;;;;;;;24.38;100.00;98220.34;5074011;28;19928;-40
2022/09/08 01:40:38;;;;;;;;;;;;;;;23.73;100.00;98226.78;5054933;28;20278;-40
2022/09/08 01:43:03;;;;;;;;;;;;;;;24.89;100.00;98221.28;5074572;28;20011;-40
2022/09/08 01:45:28;;;;;;;;;;;;;;;25.11;100.00;98216.41;5072748;28;19931;-40
2022/09/08 01:47:54;;;;;;;;;;;;;;;24.23;100.00;98216.66;5073719;28;20790;-40
2022/09/08 01:50:19;;;;;;;;;;;;;;;24.38;100.00;98210.69;5054455;28;19920;-39
2022/09/08 01:52:44;;;;;;;;;;;;;;;24.53;100.00;98208.31;5074805;28;20452;-39
2022/09/08 01:55:10;;;;;;;;;;;;;;;24.23;100.00;98220.13;5074139;28;19999;-39
2022/09/08 01:57:35;;;;;;;;;;;;;;;24.23;100.00;98221.94;5055058;28;20062;-39
2022/09/08 02:00:01;;;;;;;;;;;;;;;24.61;100.00;98213.63;5073527;28;19924;-39
2022/09/08 02:02:26;;;;;;;;;;;;;;;24.17;100.00;98220.72;5073186;28;20693;-39
2022/09/08 02:04:52;;;;;;;;;;;;;;;24.23;100.00;98216.66;5073552;28;19920;-39
2022/09/08 02:07:17;;;;;;;;;;;;;;;24.67;100.00;98214.78;5073375;28;19920;-40
2022/09/08 02:09:42;;;;;;;;;;;;;;;23.65;100.00;98228.53;5074112;28;19920;-39
2022/09/08 02:12:08;;;;;;;;;;;;;;;24.15;100.00;98227.94;5072044;28;19920;-39
2022/09/08 02:14:33;;;;;;;;;;;;;;;24.07;100.00;98220.84;5073931;28;19920;-39
2022/09/08 02:16:58;;;;;;;;;;;;;;;23.88;100.00;98226.28;5073503;28;19973;-39
2022/09/08 02:19:24;;;;;;;;;;;;;;;24.00;100.00;98225.88;5073090;28;19928;-39
2022/09/08 02:21:49;;;;;;;;;;;;;;;24.16;100.00;98222.53;5071070;28;20400;-39
2022/09/08 02:24:14;;;;;;;;;;;;;;;23.26;100.00;98229.63;5074226;28;19973;-39
2022/09/08 02:26:40;;;;;;;;;;;;;;;23.55;100.00;98213.66;5072601;28;19945;-39
2022/09/08 02:29:08;;;;;;;;;;;;;;;23.84;100.00;98212.63;5074120;28;20851;-39
2022/09/08 02:31:33;;;;;;;;;;;;;;;23.96;100.00;98194.78;5071260;28;19920;-39
2022/09/08 02:33:58;;;;;;;;;;;;;;;23.51;100.00;98195.72;5071592;28;20036;-39
2022/09/08 02:36:24;;;;;;;;;;;;;;;24.48;100.00;98181.63;5072455;28;20406;-39
2022/09/08 02:38:49;;;;;;;;;;;;;;;23.72;100.00;98188.34;5072447;28;20662;-39
2022/09/08 02:41:16;;;;;;;;;;;;;;;23.89;100.00;98184.06;5071433;28;19991;-40
2022/09/08 02:43:41;;;;;;;;;;;;;;;24.30;100.00;98180.84;5071474;28;20587;-39
2022/09/08 02:46:06;;;;;;;;;;;;;;;24.28;100.00;98178.38;5071381;28;19920;-39
2022/09/08 02:48:32;;;;;;;;;;;;;;;23.80;100.00;98183.16;5071884;28;19920;-39
2022/09/08 02:50:59;;;;;;;;;;;;;;;23.90;100.00;98185.72;5072280;28;19923;-39
2022/09/08 02:53:24;;;;;;;;;;;;;;;24.36;100.00;98169.72;5072037;28;19999;-39
2022/09/08 02:55:49;;;;;;;;;;;;;;;24.61;100.00;98171.50;5072208;28;19923;-39
2022/09/08 02:58:14;;;;;;;;;;;;;;;24.52;100.00;98164.56;5071322;28;19925;-39
2022/09/08 03:00:39;;;;;;;;;;;;;;;24.20;100.00;98173.91;5071999;28;19967;-39
2022/09/08 03:03:05;;;;;;;;;;;;;;;24.26;100.00;98169.00;5073159;28;20018;-39
2022/09/08 03:05:30;;;;;;;;;;;;;;;25.33;100.00;98157.84;5070672;28;19926;-39
2022/09/08 03:07:57;;;;;;;;;;;;;;;25.85;100.00;98161.97;5069056;28;19976;-39
2022/09/08 03:10:23;;;;;;;;;;;;;;;25.60;100.00;98158.53;5071600;28;19920;-39
2022/09/08 03:12:48;;;;;;;;;;;;;;;25.38;100.00;98162.63;5071194;28;19920;-39
2022/09/08 03:15:14;;;;;;;;;;;;;;;25.15;100.00;98171.13;5069957;28;20381;-39
2022/09/08 03:17:39;;;;;;;;;;;;;;;25.87;100.00;98173.22;5071600;28;20666;-39
2022/09/08 03:20:04;;;;;;;;;;;;;;;26.02;100.00;98174.19;5071589;28;19955;-39
2022/09/08 03:22:30;;;;;;;;;;;;;;;26.24;100.00;98159.44;5071820;28;19920;-39
2022/09/08 03:24:56;;;;;;;;;;;;;;;26.18;100.00;98162.75;5070271;28;19955;-40
2022/09/08 03:27:21;;;;;;;;;;;;;;;26.23;100.00;98164.91;5069845;28;19964;-39
2022/09/08 03:29:46;;;;;;;;;;;;;;;26.26;100.00;98165.38;5070808;28;19964;-39
2022/09/08 03:32:11;;;;;;;;;;;;;;;26.24;100.00;98166.53;5071464;28;20667;-39
2022/09/08 03:34:37;;;;;;;;;;;;;;;26.25;100.00;98166.38;5069562;28;19920;-39
2022/09/08 03:37:02;;;;;;;;;;;;;;;26.30;100.00;98165.88;5069875;28;19927;-39
2022/09/08 03:39:27;;;;;;;;;;;;;;;26.22;100.00;98158.78;5070763;28;19953;-39
2022/09/08 03:41:53;;;;;;;;;;;;;;;26.22;100.00;98164.06;5052285;28;20090;-39
2022/09/08 03:44:19;;;;;;;;;;;;;;;26.26;100.00;98160.09;5069410;28;19927;-39
2022/09/08 03:46:44;;;;;;;;;;;;;;;25.96;100.00;98169.56;5051147;28;19920;-39
2022/09/08 03:49:10;;;;;;;;;;;;;;;26.13;100.00;98148.41;5070266;28;19945;-39
2022/09/08 03:51:36;;;;;;;;;;;;;;;26.21;100.00;98151.88;5070975;28;20039;-39
2022/09/08 03:56:45;;;;;;;;;;;;;;;26.20;100.00;98139.63;5070400;28;20103;-39
2022/09/08 03:59:10;;;;;;;;;;;;;;;26.23;100.00;98135.88;5071451;28;19924;-39
2022/09/08 04:01:36;;;;;;;;;;;;;;;26.32;100.00;98136.63;5071831;28;20029;-39
2022/09/08 04:04:01;;;;;;;;;;;;;;;26.33;100.00;98133.03;5070282;28;20019;-39
2022/09/08 04:06:27;;;;;;;;;;;;;;;26.38;100.00;98141.25;5071140;28;19916;-40
2022/09/08 04:08:53;;;;;;;;;;;;;;;26.41;100.00;98140.88;5070106;28;19920;-39
2022/09/08 04:11:18;;;;;;;;;;;;;;;26.36;100.00;98136.13;5070814;28;19959;-39
2022/09/08 04:13:43;;;;;;;;;;;;;;;26.17;100.00;98137.34;5068871;28;19980;-39
2022/09/08 04:16:08;;;;;;;;;;;;;;;25.66;100.00;98137.59;5069999;28;20800;-39
2022/09/08 04:18:33;;;;;;;;;;;;;;;25.51;100.00;98130.53;5070767;28;20629;-40
2022/09/08 04:20:59;;;;;;;;;;;;;;;25.43;100.00;98129.53;5072510;28;20831;-39
2022/09/08 04:23:24;;;;;;;;;;;;;;;26.07;100.00;98132.28;5071355;28;19920;-39
2022/09/08 04:26:00;;;;;;;;;;;;;;;25.72;100.00;98143.19;5070485;28;19920;-39
2022/09/08 04:28:26;;;;;;;;;;;;;;;25.17;100.00;98140.19;5071634;28;19920;-39
2022/09/08 04:30:51;;;;;;;;;;;;;;;25.34;100.00;98137.59;5068584;28;19946;-45
2022/09/08 04:33:16;;;;;;;;;;;;;;;25.41;100.00;98134.16;5053270;28;19942;-45
2022/09/08 04:35:41;;;;;;;;;;;;;;;24.96;100.00;98143.28;5050749;28;19981;-45
2022/09/08 04:38:06;;;;;;;;;;;;;;;25.80;100.00;98128.19;5070887;28;19974;-45
2022/09/08 04:40:33;;;;;;;;;;;;;;;25.85;100.00;98133.78;5067619;28;20989;-44
2022/09/08 04:42:58;;;;;;;;;;;;;;;26.14;100.00;98139.50;5070047;28;19927;-44
2022/09/08 04:45:23;;;;;;;;;;;;;;;26.10;100.00;98141.66;5070184;28;20289;-47
2022/09/08 04:47:48;;;;;;;;;;;;;;;25.77;100.00;98152.25;5071149;28;20395;-45
2022/09/08 04:50:14;;;;;;;;;;;;;;;25.69;100.00;98157.53;5075707;28;21162;-45
2022/09/08 04:52:39;;;;;;;;;;;;;;;25.53;100.00;98157.53;5073386;28;20366;-39
2022/09/08 04:55:04;;;;;;;;;;;;;;;25.56;100.00;98157.19;5072937;28;19943;-39
2022/09/08 04:57:30;;;;;;;;;;;;;;;25.03;100.00;98168.00;5073697;28;19916;-40
2022/09/08 04:59:55;;;;;;;;;;;;;;;24.39;100.00;98169.38;5075654;28;19916;-45
2022/09/08 05:02:21;;;;;;;;;;;;;;;24.49;100.00;98170.13;5073798;28;19920;-45
2022/09/08 05:04:46;;;;;;;;;;;;;;;23.64;100.00;98180.38;5075428;28;19923;-45
2022/09/08 05:07:11;;;;;;;;;;;;;;;24.51;100.00;98170.78;5073918;28;19920;-49
2022/09/08 05:09:36;;;;;;;;;;;;;;;23.99;100.00;98162.91;5056780;28;19974;-46
2022/09/08 05:12:02;;;;;;;;;;;;;;;24.16;100.00;98164.66;5075828;28;19916;-47
2022/09/08 05:14:27;;;;;;;;;;;;;;;24.08;100.00;98166.41;5076022;28;19916;-47
2022/09/08 05:16:52;;;;;;;;;;;;;;;24.35;100.00;98155.72;5075219;28;20012;-46
2022/09/08 05:19:17;;;;;;;;;;;;;;;24.33;100.00;98156.84;5073915;28;20385;-46
2022/09/08 05:21:43;;;;;;;;;;;;;;;24.22;100.00;98147.41;5074719;28;20006;-46
2022/09/08 05:24:08;;;;;;;;;;;;;;;24.75;100.00;98142.91;5074099;28;20007;-48
2022/09/08 05:26:34;;;;;;;;;;;;;;;24.96;100.00;98145.91;5074987;28;19994;-47
2022/09/08 05:28:59;;;;;;;;;;;;;;;25.22;100.00;98139.72;5075346;28;19916;-46
2022/09/08 05:31:26;;;;;;;;;;;;;;;24.79;100.00;98142.44;5075075;28;19916;-46
2022/09/08 05:33:51;;;;;;;;;;;;;;;24.36;100.00;98144.22;5057204;28;19928;-47
2022/09/08 05:36:21;;;;;;;;;;;;;;;24.70;100.00;98155.72;5073268;28;19920;-46
2022/09/08 05:38:46;;;;;;;;;;;;;;;24.73;100.00;98150.16;5075143;28;19920;-46
2022/09/08 05:41:12;;;;;;;;;;;;;;;24.92;100.00;98156.94;5073629;28;20399;-46
2022/09/08 05:43:37;;;;;;;;;;;;;;;25.00;100.00;98147.25;5075894;28;20003;-45
2022/09/08 05:46:03;;;;;;;;;;;;;;;24.09;100.00;98153.13;5074475;28;19916;-47
2022/09/08 05:48:28;;;;;;;;;;;;;;;24.62;100.00;98159.97;5074891;28;19920;-48
2022/09/08 05:50:53;;;;;;;;;;;;;;;24.31;100.00;98161.44;5074852;28;19940;-47
2022/09/08 05:53:18;;;;;;;;;;;;;;;23.97;100.00;98170.13;5056100;28;19962;-47
2022/09/08 05:55:53;;;;;;;;;;;;;;;24.32;100.00;98168.38;5074281;28;20930;-46
2022/09/08 05:58:18;;;;;;;;;;;;;;;23.73;100.00;98170.75;5056403;28;19965;-46
2022/09/08 06:00:43;;;;;;;;;;;;;;;24.40;100.00;98184.19;5073248;28;20018;-46
2022/09/08 06:03:09;;;;;;;;;;;;;;;24.87;100.00;98182.94;5075048;28;19916;-47
2022/09/08 06:05:34;;;;;;;;;;;;;;;24.89;100.00;98181.78;5072917;28;19920;-46
2022/09/08 06:08:00;;;;;;;;;;;;;;;24.50;100.00;98187.56;5075343;28;19916;-46
2022/09/08 06:10:25;;;;;;;;;;;;;;;23.39;100.00;98203.81;5072774;28;19958;-46
2022/09/08 06:12:51;;;;;;;;;;;;;;;24.08;100.00;98192.72;5074236;28;19916;-48
2022/09/08 06:15:17;;;;;;;;;;;;;;;23.96;100.00;98194.78;5073760;28;19965;-47
2022/09/08 06:17:42;;;;;;;;;;;;;;;24.63;100.00;98187.97;5074145;28;19939;-47
2022/09/08 06:20:08;;;;;;;;;;;;;;;24.41;100.00;98177.97;5074368;28;19938;-46
2022/09/08 06:22:34;;;;;;;;;;;;;;;24.82;100.00;98186.06;5073882;28;19931;-45
2022/09/08 06:25:00;;;;;;;;;;;;;;;25.02;100.00;98176.91;5074302;28;19920;-45
2022/09/08 06:27:27;;;;;;;;;;;;;;;24.96;100.00;98169.63;5073115;28;19938;-47
2022/09/08 06:29:55;;;;;;;;;;;;;;;24.69;100.00;98175.13;5074519;28;19974;-46
2022/09/08 06:32:25;;;;;;;;;;;;;;;24.77;100.00;98180.41;5056424;28;19916;-45
2022/09/08 06:35:01;;;;;;;;;;;;;;;24.86;100.00;98181.28;5056158;28;20396;-47
2022/09/08 06:37:31;;;;;;;;;;;;;;;24.98;100.00;98182.66;5055831;28;19927;-45
2022/09/08 06:40:06;;;;;;;;;;;;;;;24.88;100.00;98180.13;5074006;28;19920;-46
2022/09/08 06:42:34;;;;;;;;;;;;;;;24.50;100.00;98171.78;5073366;28;19961;-46
2022/09/08 06:44:59;;;;;;;;;;;;;;;24.55;100.00;98182.66;5054365;28;19920;-46
2022/09/08 06:47:26;;;;;;;;;;;;;;;24.75;100.00;98171.88;5054550;28;19916;-48
2022/09/08 06:49:52;;;;;;;;;;;;;;;24.16;100.00;98175.19;5055044;28;19920;-49
2022/09/08 06:52:23;;;;;;;;;;;;;;;24.36;100.00;98181.06;5072894;28;20745;-49
2022/09/08 06:54:49;;;;;;;;;;;;;;;24.72;100.00;98169.53;5073921;28;19923;-47
2022/09/08 06:57:24;;;;;;;;;;;;;;;24.64;100.00;98172.97;5053104;28;20395;-47
2022/09/08 07:00:02;;;;;;;;;;;;;;;24.78;100.00;98163.66;5064741;28;20504;-48
2022/09/08 07:02:46;;;;;;;;;;;;;;;24.87;100.00;98161.88;5072222;28;19985;-47
2022/09/08 07:05:29;;;;;;;;;;;;;;;24.96;100.00;98167.00;5073442;28;19973;-50
2022/09/08 07:08:13;;;;;;;;;;;;;;;24.56;100.00;98168.53;5072715;28;19923;-48
2022/09/08 07:10:54;;;;;;;;;;;;;;;24.84;100.00;98173.56;5072881;28;19920;-47
2022/09/08 07:13:21;;;;;;;;;;;;;;;24.05;100.00;98167.56;5054803;28;19958;-50
2022/09/08 07:16:06;;;;;;;;;;;;;;;23.50;100.00;98181.75;5054868;28;19916;-50
2022/09/08 07:18:37;;;;;;;;;;;;;;;23.13;100.00;98185.34;5070050;28;19978;-47
2022/09/08 07:21:17;;;;;;;;;;;;;;;24.15;100.00;98178.81;5071329;28;19928;-49
2022/09/08 07:23:42;;;;;;;;;;;;;;;23.34;100.00;98187.69;5071585;28;19927;-50
2022/09/08 07:26:10;;;;;;;;;;;;;;;23.76;100.00;98186.25;5071529;28;19916;-51
2022/09/08 07:28:40;;;;;;;;;;;;;;;23.64;100.00;98190.91;5072500;28;20024;-51
2022/09/08 07:31:05;;;;;;;;;;;;;;;24.45;100.00;98189.81;5054477;28;19916;-53
2022/09/08 07:33:32;;;;;;;;;;;;;;;24.42;100.00;98182.22;5071967;28;20323;-49
2022/09/08 07:36:20;;;;;;;;;;;;;;;24.75;100.00;98185.03;5072102;28;19985;-52
2022/09/08 07:38:47;;;;;;;;;;;;;;;24.51;100.00;98193.66;5054893;28;19962;-52
2022/09/08 07:41:15;;;;;;;;;;;;;;;24.68;100.00;98191.91;5072297;28;19924;-51
2022/09/08 07:43:40;;;;;;;;;;;;;;;24.65;100.00;98189.59;5053192;28;20418;-50
2022/09/08 07:46:13;;;;;;;;;;;;;;;24.67;100.00;98177.09;5071746;28;19922;-50
2022/09/08 07:48:48;;;;;;;;;;;;;;;24.79;100.00;98175.81;5054498;28;19955;-52
2022/09/08 07:51:14;;;;;;;;;;;;;;;24.60;100.00;98175.09;5072892;28;19920;-50
2022/09/08 07:53:58;;;;;;;;;;;;;;;24.01;100.00;98177.56;5071664;28;19927;-49
2022/09/08 07:56:26;;;;;;;;;;;;;;;24.30;100.00;98181.69;5072033;28;19926;-52
2022/09/08 07:59:03;;;;;;;;;;;;;;;24.55;100.00;98174.75;5072536;28;19924;-48
2022/09/08 08:01:31;;;;;;;;;;;;;;;24.71;100.00;98183.72;5073234;28;19920;-52
2022/09/08 08:04:05;;;;;;;;;;;;;;;24.67;100.00;98183.19;5073754;28;20011;-51
2022/09/08 08:06:38;;;;;;;;;;;;;;;24.82;100.00;98180.78;5072187;28;19916;-49
2022/09/08 08:09:22;;;;;;;;;;;;;;;24.59;100.00;98191.88;5053973;28;19922;-51
2022/09/08 08:11:51;;;;;;;;;;;;;;;24.26;100.00;98182.97;5072330;28;20743;-52
2022/09/08 08:14:27;;;;;;;;;;;;;;;24.54;100.00;98183.66;5072948;28;20316;-51
2022/09/08 08:16:52;;;;;;;;;;;;;;;24.88;100.00;98184.56;5052977;28;19931;-48
2022/09/08 08:19:23;;;;;;;;;;;;;;;25.00;100.00;98189.41;5072612;28;19920;-49
2022/09/08 08:21:56;;;;;;;;;;;;;;;24.78;100.00;98196.06;5071714;28;20938;-48
2022/09/08 08:24:21;;;;;;;;;;;;;;;25.02;100.00;98207.66;5056705;28;19934;-49
2022/09/08 08:26:50;;;;;;;;;;;;;;;24.95;100.00;98207.50;5075734;28;19916;-48
2022/09/08 08:29:21;;;;;;;;;;;;;;;25.00;100.00;98209.66;5076543;28;20735;-48
2022/09/08 08:32:01;;;;;;;;;;;;;;;25.13;100.00;98202.09;5077321;28;19916;-49
2022/09/08 08:34:30;;;;;;;;;;;;;;;25.22;100.00;98216.97;5057974;28;19935;-47
2022/09/08 08:37:02;;;;;;;;;;;;;;;25.04;100.00;98217.06;5057881;28;19922;-49
2022/09/08 08:39:28;;;;;;;;;;;;;;;24.86;100.00;98213.72;5056906;28;19958;-51
2022/09/08 08:42:11;;;;;;;;;;;;;;;25.07;100.00;98215.94;5076301;28;20440;-51
2022/09/08 08:44:47;;;;;;;;;;;;;;;25.01;100.00;98206.84;5075453;28;19982;-52
2022/09/08 08:47:28;;;;;;;;;;;;;;;24.90;100.00;98215.03;5056832;28;19960;-52
2022/09/08 08:50:15;;;;;;;;;;;;;;;24.77;100.00;98212.88;5076348;28;19962;-48
2022/09/08 08:52:55;;;;;;;;;;;;;;;24.21;100.00;98224.72;5057814;28;19923;-51
2022/09/08 08:55:39;;;;;;;;;;;;;;;24.97;100.00;98204.69;5075765;28;20416;-50
2022/09/08 08:58:31;;;;;;;;;;;;;;;24.96;100.00;98210.94;5076406;28;20027;-52
2022/09/08 09:01:02;;;;;;;;;;;;;;;24.25;100.00;98217.34;5058699;28;19916;-51
2022/09/08 09:03:31;;;;;;;;;;;;;;;24.75;100.00;98211.38;5076250;28;19916;-48
2022/09/08 09:06:08;;;;;;;;;;;;;;;24.86;100.00;98211.09;5056989;28;20405;-49
2022/09/08 09:08:43;;;;;;;;;;;;;;;25.11;100.00;98211.13;5057672;28;19922;-51
2022/09/08 09:11:19;;;;;;;;;;;;;;;24.94;100.00;98202.38;5076443;28;20346;-50
2022/09/08 09:13:54;;;;;;;;;;;;;;;24.94;100.00;98199.75;5057721;28;19968;-50
2022/09/08 09:16:19;;;;;;;;;;;;;;;25.10;100.00;98209.50;5074467;28;19916;-49
2022/09/08 09:19:03;;;;;;;;;;;;;;;25.08;100.00;98208.84;5076505;28;19927;-49
2022/09/08 09:21:31;;;;;;;;;;;;;;;24.40;100.00;98208.72;5074454;28;19916;-50
2022/09/08 09:24:03;;;;;;;;;;;;;;;24.53;100.00;98203.03;5065968;28;19919;-51
2022/09/08 09:26:32;;;;;;;;;;;;;;;25.13;100.00;98203.91;5054332;28;19916;-50
2022/09/08 09:28:57;;;;;;;;;;;;;;;24.95;100.00;98196.97;5072793;28;19916;-48
2022/09/08 09:31:23;;;;;;;;;;;;;;;24.53;100.00;98212.75;5065661;28;20370;-48
2022/09/08 09:33:51;;;;;;;;;;;;;;;25.18;100.00;98202.47;5070348;28;19920;-51
2022/09/08 09:36:23;;;;;;;;;;;;;;;24.90;100.00;98209.75;5072670;28;20397;-48
2022/09/08 09:38:56;;;;;;;;;;;;;;;24.70;100.00;98209.22;5057292;28;19949;-50
2022/09/08 09:41:40;;;;;;;;;;;;;;;24.43;100.00;98218.09;5056620;28;20140;-50
2022/09/08 09:44:17;;;;;;;;;;;;;;;24.20;100.00;98225.69;5072657;28;20043;-47
2022/09/08 09:47:01;;;;;;;;;;;;;;;24.71;100.00;98215.31;5072450;28;19920;-49
2022/09/08 09:49:31;;;;;;;;;;;;;;;24.67;100.00;98213.97;5075083;28;19916;-50
2022/09/08 09:52:06;;;;;;;;;;;;;;;24.30;100.00;98215.06;5056079;28;19946;-49
2022/09/08 09:54:50;;;;;;;;;;;;;;;23.76;100.00;98213.38;5074359;28;19916;-47
2022/09/08 09:57:44;;;;;;;;;;;;;;;24.65;100.00;98210.66;5073643;28;19939;-50
2022/09/08 10:00:14;;;;;;;;;;;;;;;23.75;100.00;98216.97;4991786;28;20264;-47
2022/09/08 10:02:39;;;;;;;;;;;;;;;24.03;100.00;98210.78;5055202;28;19927;-47
2022/09/08 10:05:22;;;;;;;;;;;;;;;24.65;100.00;98206.22;5073993;28;19916;-47
2022/09/08 10:08:06;;;;;;;;;;;;;;;24.32;100.00;98207.84;5074346;28;20450;-50
2022/09/08 10:10:31;;;;;;;;;;;;;;;24.34;100.00;98213.78;5074564;28;19919;-48
2022/09/08 10:13:12;;;;;;;;;;;;;;;24.21;100.00;98203.66;5074885;28;20288;-50
2022/09/08 10:15:37;;;;;;;;;;;;;;;24.31;100.00;98208.81;5074693;28;20001;-48
2022/09/08 10:18:11;;;;;;;;;;;;;;;23.01;100.00;98219.84;5075171;28;19916;-49
2022/09/08 10:20:36;;;;;;;;;;;;;;;23.04;100.00;98225.63;5056751;28;20459;-50
2022/09/08 10:23:02;;;;;;;;;;;;;;;23.18;100.00;98226.94;5074299;28;19931;-48
2022/09/08 10:25:27;;;;;;;;;;;;;;;23.43;100.00;98224.56;5075297;28;19916;-47
2022/09/08 10:27:56;;;;;;;;;;;;;;;23.75;100.00;98219.63;5073969;28;20911;-49
2022/09/08 10:30:28;;;;;;;;;;;;;;;24.21;100.00;98214.19;5073793;28;19920;-47
2022/09/08 10:33:12;;;;;;;;;;;;;;;23.68;100.00;98218.53;5056282;28;19916;-47
2022/09/08 10:35:38;;;;;;;;;;;;;;;23.91;100.00;98220.72;5074296;28;19984;-48
2022/09/08 10:38:22;;;;;;;;;;;;;;;24.35;100.00;98218.88;5056838;28;19935;-50
2022/09/08 10:40:56;;;;;;;;;;;;;;;23.47;100.00;98236.41;5073824;28;19916;-49
2022/09/08 10:43:27;;;;;;;;;;;;;;;24.17;100.00;98228.63;5074521;28;20127;-47
2022/09/08 10:46:04;;;;;;;;;;;;;;;24.75;100.00;98221.91;5072811;28;20612;-51
2022/09/08 10:48:32;;;;;;;;;;;;;;;24.21;100.00;98225.53;5071677;28;19916;-48
2022/09/08 10:51:03;;;;;;;;;;;;;;;26.05;100.00;98218.69;5073905;28;20254;-50
2022/09/08 10:53:38;;;;;;;;;;;;;;;25.00;100.00;98230.72;5055143;28;20015;-50
2022/09/08 10:56:13;;;;;;;;;;;;;;;25.25;100.00;98224.56;5071651;28;19954;-48
2022/09/08 10:58:51;;;;;;;;;;;;;;;24.69;100.00;98238.34;5040497;28;19924;-48
2022/09/08 11:01:35;;;;;;;;;;;;;;;23.58;100.00;98229.16;5053228;28;20806;-47
2022/09/08 11:04:17;;;;;;;;;;;;;;;24.13;100.00;98241.28;5072737;28;19915;-48
2022/09/08 11:07:00;;;;;;;;;;;;;;;24.05;100.00;98229.88;5054478;28;19970;-50
2022/09/08 11:09:28;;;;;;;;;;;;;;;24.33;100.00;98227.91;5072443;28;19924;-50
2022/09/08 11:12:00;;;;;;;;;;;;;;;24.00;100.00;98243.47;5071987;28;19916;-48
2022/09/08 11:14:43;;;;;;;;;;;;;;;24.00;100.00;98243.47;5073444;28;20361;-48
2022/09/08 11:17:15;;;;;;;;;;;;;;;23.75;100.00;98235.38;5072181;28;19969;-50
2022/09/08 11:19:50;;;;;;;;;;;;;;;25.08;100.00;98241.28;5054051;28;19920;-48
2022/09/08 11:22:28;;;;;;;;;;;;;;;24.04;100.00;98242.19;5038613;28;19974;-50
2022/09/08 11:24:53;;;;;;;;;;;;;;;25.31;100.00;98235.44;5072795;28;20011;-49
2022/09/08 11:27:24;;;;;;;;;;;;;;;25.96;100.00;98224.16;5073562;28;20384;-51
2022/09/08 11:30:10;;;;;;;;;;;;;;;26.17;100.00;98226.25;5073537;28;19915;-50
2022/09/08 11:32:40;;;;;;;;;;;;;;;25.50;100.00;98226.41;5059030;28;19920;-48
2022/09/08 11:35:24;;;;;;;;;;;;;;;25.96;100.00;98229.44;5055949;28;19944;-49
2022/09/08 11:37:55;;;;;;;;;;;;;;;26.26;100.00;98228.72;5072791;28;20338;-49
2022/09/08 11:40:23;;;;;;;;;;;;;;;26.57;100.00;98228.03;5073813;28;20002;-47
2022/09/08 11:42:51;;;;;;;;;;;;;;;25.73;100.00;98227.41;5073719;28;20059;-48
2022/09/08 11:45:31;;;;;;;;;;;;;;;27.54;100.00;98217.94;5073657;28;19916;-47
2022/09/08 11:48:15;;;;;;;;;;;;;;;26.52;100.00;98225.00;5073483;28;19916;-49
2022/09/08 11:50:59;;;;;;;;;;;;;;;25.61;100.00;98236.63;5037976;28;20732;-52
2022/09/08 11:53:31;;;;;;;;;;;;;;;26.11;100.00;98222.47;5071504;28;19926;-46
2022/09/08 11:56:16;;;;;;;;;;;;;;;26.66;100.00;98228.78;5051971;28;19920;-46
2022/09/08 11:59:00;;;;;;;;;;;;;;;27.07;100.00;98221.53;5069413;28;20491;-46
2022/09/08 12:01:33;;;;;;;;;;;;;;;27.12;100.00;98221.84;5058104;28;20839;-47
2022/09/08 12:04:11;;;;;;;;;;;;;;;28.05;100.00;98216.56;5059295;28;19973;-46
2022/09/08 12:06:49;;;;;;;;;;;;;;;28.93;98.56;98212.28;5057954;28;19916;-48
2022/09/08 12:09:17;;;;;;;;;;;;;;;27.34;100.00;98222.03;5077435;28;19923;-48
2022/09/08 12:11:45;;;;;;;;;;;;;;;26.82;100.00;98217.34;5078138;28;19916;-46
2022/09/08 12:14:18;;;;;;;;;;;;;;;27.04;100.00;98211.28;5077226;28;19927;-47
2022/09/08 12:16:53;;;;;;;;;;;;;;;27.31;100.00;98204.72;5059051;28;19927;-46
2022/09/08 12:19:21;;;;;;;;;;;;;;;27.06;100.00;98211.94;5077245;28;19924;-45
2022/09/08 12:21:49;;;;;;;;;;;;;;;26.16;100.00;98219.31;5076812;28;20450;-46
2022/09/08 12:24:36;;;;;;;;;;;;;;;28.63;100.00;98201.75;5077264;28;19956;-46
2022/09/08 12:27:04;;;;;;;;;;;;;;;29.63;94.77;98196.69;5058747;28;19939;-47
2022/09/08 12:29:32;;;;;;;;;;;;;;;28.78;93.98;98197.25;5076842;28;19945;-47
2022/09/08 12:32:16;;;;;;;;;;;;;;;28.17;90.26;98191.31;5077927;28;19916;-47
2022/09/08 12:35:00;;;;;;;;;;;;;;;27.35;91.74;98205.19;5076563;28;19920;-47
2022/09/08 12:37:44;;;;;;;;;;;;;;;28.23;92.01;98197.69;5076214;28;19916;-47
2022/09/08 12:40:24;;;;;;;;;;;;;;;27.25;95.58;98205.41;5077172;28;19927;-46
2022/09/08 12:42:52;;;;;;;;;;;;;;;26.89;100.00;98202.44;5076004;28;20002;-48
2022/09/08 12:45:18;;;;;;;;;;;;;;;27.65;99.37;98187.63;5075369;28;19920;-48
2022/09/08 12:47:52;;;;;;;;;;;;;;;28.83;95.53;98191.41;5058353;28;19935;-47
2022/09/08 12:50:17;;;;;;;;;;;;;;;28.78;93.37;98186.66;5075309;28;19916;-46
2022/09/08 12:52:42;;;;;;;;;;;;;;;28.71;92.05;98180.44;5076719;28;19923;-46
2022/09/08 12:55:14;;;;;;;;;;;;;;;27.99;89.19;98178.41;5075880;28;19924;-46
2022/09/08 12:57:54;;;;;;;;;;;;;;;27.45;90.13;98176.69;5075214;28;20015;-46
2022/09/08 13:00:22;;;;;;;;;;;;;;;29.61;87.35;98173.84;5076000;28;19996;-46